sensor_id;sensor_type;location;lat;lon;timestamp;P1;durP1;ratioP1;P2;durP2;ratioP2
20468;SDS011;10393;52.460;13.322;2023-05-17T00:00:22;6.27;;;0.47;;
20468;SDS011;10393;52.460;13.322;2023-05-17T00:02:03;1.63;;;0.30;;
20468;SDS011;10393;52.460;13.322;2023-05-17T00:03:45;1.60;;;0.43;;
20468;SDS011;10393;52.460;13.322;2023-05-17T00:05:26;2.77;;;0.53;;
20468;SDS011;10393;52.460;13.322;2023-05-17T00:07:07;1.90;;;0.40;;
20468;SDS011;10393;52.460;13.322;2023-05-17T00:08:48;7.73;;;0.50;;
20468;SDS011;10393;52.460;13.322;2023-05-17T00:10:29;3.40;;;0.30;;
20468;SDS011;10393;52.460;13.322;2023-05-17T00:12:10;2.97;;;0.60;;
20468;SDS011;10393;52.460;13.322;2023-05-17T00:13:51;1.77;;;0.63;;
20468;SDS011;10393;52.460;13.322;2023-05-17T00:15:33;0.73;;;0.33;;
20468;SDS011;10393;52.460;13.322;2023-05-17T00:17:14;2.63;;;0.50;;
20468;SDS011;10393;52.460;13.322;2023-05-17T00:18:55;0.83;;;0.60;;
20468;SDS011;10393;52.460;13.322;2023-05-17T00:20:37;1.53;;;0.60;;
20468;SDS011;10393;52.460;13.322;2023-05-17T00:22:18;5.20;;;0.80;;
20468;SDS011;10393;52.460;13.322;2023-05-17T00:23:59;18.97;;;0.83;;
20468;SDS011;10393;52.460;13.322;2023-05-17T00:25:40;2.83;;;0.47;;
20468;SDS011;10393;52.460;13.322;2023-05-17T00:27:22;4.43;;;0.60;;
20468;SDS011;10393;52.460;13.322;2023-05-17T00:29:03;1.20;;;0.40;;
20468;SDS011;10393;52.460;13.322;2023-05-17T00:30:44;2.20;;;0.40;;
20468;SDS011;10393;52.460;13.322;2023-05-17T00:32:25;4.17;;;0.80;;
20468;SDS011;10393;52.460;13.322;2023-05-17T00:34:06;7.17;;;0.57;;
20468;SDS011;10393;52.460;13.322;2023-05-17T00:35:48;8.27;;;0.60;;
20468;SDS011;10393;52.460;13.322;2023-05-17T00:37:29;1.90;;;0.40;;
20468;SDS011;10393;52.460;13.322;2023-05-17T00:39:10;0.40;;;0.40;;
20468;SDS011;10393;52.460;13.322;2023-05-17T00:40:51;1.33;;;0.53;;
20468;SDS011;10393;52.460;13.322;2023-05-17T00:42:33;2.40;;;1.00;;
20468;SDS011;10393;52.460;13.322;2023-05-17T00:44:14;1.67;;;0.83;;
20468;SDS011;10393;52.460;13.322;2023-05-17T00:45:56;3.80;;;0.70;;
20468;SDS011;10393;52.460;13.322;2023-05-17T00:47:37;3.77;;;0.60;;
20468;SDS011;10393;52.460;13.322;2023-05-17T00:49:18;6.40;;;0.77;;
20468;SDS011;10393;52.460;13.322;2023-05-17T00:51:00;0.73;;;0.50;;
20468;SDS011;10393;52.460;13.322;2023-05-17T00:52:41;5.47;;;0.90;;
20468;SDS011;10393;52.460;13.322;2023-05-17T00:54:22;1.33;;;0.50;;
20468;SDS011;10393;52.460;13.322;2023-05-17T00:56:03;1.83;;;0.77;;
20468;SDS011;10393;52.460;13.322;2023-05-17T00:57:46;2.17;;;0.70;;
20468;SDS011;10393;52.460;13.322;2023-05-17T00:59:27;3.73;;;0.73;;
20468;SDS011;10393;52.460;13.322;2023-05-17T01:01:09;1.90;;;0.80;;
20468;SDS011;10393;52.460;13.322;2023-05-17T01:02:50;2.97;;;0.90;;
20468;SDS011;10393;52.460;13.322;2023-05-17T01:04:31;5.93;;;0.90;;
20468;SDS011;10393;52.460;13.322;2023-05-17T01:06:13;1.30;;;0.67;;
20468;SDS011;10393;52.460;13.322;2023-05-17T01:07:54;1.80;;;0.83;;
20468;SDS011;10393;52.460;13.322;2023-05-17T01:09:36;5.40;;;0.80;;
20468;SDS011;10393;52.460;13.322;2023-05-17T01:11:20;2.77;;;0.50;;
20468;SDS011;10393;52.460;13.322;2023-05-17T01:15:14;0.67;;;0.57;;
20468;SDS011;10393;52.460;13.322;2023-05-17T01:17:03;3.17;;;0.80;;
20468;SDS011;10393;52.460;13.322;2023-05-17T01:18:47;6.67;;;0.87;;
20468;SDS011;10393;52.460;13.322;2023-05-17T01:20:36;0.50;;;0.40;;
20468;SDS011;10393;52.460;13.322;2023-05-17T01:26:13;1.10;;;0.73;;
20468;SDS011;10393;52.460;13.322;2023-05-17T01:27:55;8.20;;;1.07;;
20468;SDS011;10393;52.460;13.322;2023-05-17T01:29:38;1.23;;;0.67;;
20468;SDS011;10393;52.460;13.322;2023-05-17T01:31:20;7.47;;;0.70;;
20468;SDS011;10393;52.460;13.322;2023-05-17T01:33:02;5.03;;;0.70;;
20468;SDS011;10393;52.460;13.322;2023-05-17T01:34:44;7.27;;;0.90;;
20468;SDS011;10393;52.460;13.322;2023-05-17T01:36:25;2.27;;;0.73;;
20468;SDS011;10393;52.460;13.322;2023-05-17T01:38:06;7.87;;;1.20;;
20468;SDS011;10393;52.460;13.322;2023-05-17T01:39:47;8.33;;;0.87;;
20468;SDS011;10393;52.460;13.322;2023-05-17T01:41:41;3.13;;;0.60;;
20468;SDS011;10393;52.460;13.322;2023-05-17T01:49:25;7.27;;;1.03;;
20468;SDS011;10393;52.460;13.322;2023-05-17T01:51:07;3.13;;;0.80;;
20468;SDS011;10393;52.460;13.322;2023-05-17T01:52:52;4.80;;;1.10;;
20468;SDS011;10393;52.460;13.322;2023-05-17T01:54:50;4.27;;;0.70;;
20468;SDS011;10393;52.460;13.322;2023-05-17T01:56:34;6.20;;;0.97;;
20468;SDS011;10393;52.460;13.322;2023-05-17T01:58:17;3.97;;;0.57;;
20468;SDS011;10393;52.460;13.322;2023-05-17T02:00:01;8.93;;;1.10;;
20468;SDS011;10393;52.460;13.322;2023-05-17T02:01:55;4.70;;;0.70;;
20468;SDS011;10393;52.460;13.322;2023-05-17T02:03:37;5.30;;;0.90;;
20468;SDS011;10393;52.460;13.322;2023-05-17T02:05:18;6.07;;;1.10;;
20468;SDS011;10393;52.460;13.322;2023-05-17T02:06:59;11.63;;;2.20;;
20468;SDS011;10393;52.460;13.322;2023-05-17T02:08:40;5.33;;;0.80;;
20468;SDS011;10393;52.460;13.322;2023-05-17T02:10:22;3.60;;;0.97;;
20468;SDS011;10393;52.460;13.322;2023-05-17T02:12:03;3.10;;;0.80;;
20468;SDS011;10393;52.460;13.322;2023-05-17T02:13:44;1.27;;;0.77;;
20468;SDS011;10393;52.460;13.322;2023-05-17T02:15:25;5.00;;;0.90;;
20468;SDS011;10393;52.460;13.322;2023-05-17T02:17:07;6.30;;;0.80;;
20468;SDS011;10393;52.460;13.322;2023-05-17T02:18:49;2.70;;;0.80;;
20468;SDS011;10393;52.460;13.322;2023-05-17T02:20:30;2.77;;;0.87;;
20468;SDS011;10393;52.460;13.322;2023-05-17T02:22:11;3.53;;;0.83;;
20468;SDS011;10393;52.460;13.322;2023-05-17T02:23:52;3.40;;;0.80;;
20468;SDS011;10393;52.460;13.322;2023-05-17T02:25:34;2.10;;;1.03;;
20468;SDS011;10393;52.460;13.322;2023-05-17T02:27:15;6.07;;;0.83;;
20468;SDS011;10393;52.460;13.322;2023-05-17T02:28:56;3.13;;;0.80;;
20468;SDS011;10393;52.460;13.322;2023-05-17T02:30:37;3.27;;;0.87;;
20468;SDS011;10393;52.460;13.322;2023-05-17T02:32:21;1.03;;;0.80;;
20468;SDS011;10393;52.460;13.322;2023-05-17T02:34:02;3.70;;;0.90;;
20468;SDS011;10393;52.460;13.322;2023-05-17T02:35:43;6.07;;;0.90;;
20468;SDS011;10393;52.460;13.322;2023-05-17T02:37:25;7.23;;;1.00;;
20468;SDS011;10393;52.460;13.322;2023-05-17T02:39:06;5.83;;;0.90;;
20468;SDS011;10393;52.460;13.322;2023-05-17T02:40:47;2.30;;;0.80;;
20468;SDS011;10393;52.460;13.322;2023-05-17T02:42:28;2.47;;;0.73;;
20468;SDS011;10393;52.460;13.322;2023-05-17T02:44:09;3.70;;;1.27;;
20468;SDS011;10393;52.460;13.322;2023-05-17T02:45:50;2.53;;;0.93;;
20468;SDS011;10393;52.460;13.322;2023-05-17T02:47:32;6.43;;;1.67;;
20468;SDS011;10393;52.460;13.322;2023-05-17T02:49:13;3.03;;;1.07;;
20468;SDS011;10393;52.460;13.322;2023-05-17T02:50:55;4.77;;;0.80;;
20468;SDS011;10393;52.460;13.322;2023-05-17T02:52:36;6.57;;;1.50;;
20468;SDS011;10393;52.460;13.322;2023-05-17T02:54:19;0.87;;;0.60;;
20468;SDS011;10393;52.460;13.322;2023-05-17T02:56:00;4.97;;;0.93;;
20468;SDS011;10393;52.460;13.322;2023-05-17T02:57:41;2.93;;;1.00;;
20468;SDS011;10393;52.460;13.322;2023-05-17T02:59:23;5.57;;;1.20;;
20468;SDS011;10393;52.460;13.322;2023-05-17T03:01:04;5.77;;;2.27;;
20468;SDS011;10393;52.460;13.322;2023-05-17T03:02:45;1.70;;;0.90;;
20468;SDS011;10393;52.460;13.322;2023-05-17T03:04:26;3.20;;;1.00;;
20468;SDS011;10393;52.460;13.322;2023-05-17T03:06:08;3.70;;;0.70;;
20468;SDS011;10393;52.460;13.322;2023-05-17T03:07:51;5.43;;;1.40;;
20468;SDS011;10393;52.460;13.322;2023-05-17T03:09:32;5.67;;;1.33;;
20468;SDS011;10393;52.460;13.322;2023-05-17T03:11:14;5.30;;;1.37;;
20468;SDS011;10393;52.460;13.322;2023-05-17T03:12:55;3.77;;;0.90;;
20468;SDS011;10393;52.460;13.322;2023-05-17T03:14:39;6.07;;;0.97;;
20468;SDS011;10393;52.460;13.322;2023-05-17T03:16:22;3.87;;;1.37;;
20468;SDS011;10393;52.460;13.322;2023-05-17T03:18:05;7.67;;;1.07;;
20468;SDS011;10393;52.460;13.322;2023-05-17T03:19:47;3.80;;;1.27;;
20468;SDS011;10393;52.460;13.322;2023-05-17T03:21:28;3.63;;;1.10;;
20468;SDS011;10393;52.460;13.322;2023-05-17T03:23:10;3.77;;;1.13;;
20468;SDS011;10393;52.460;13.322;2023-05-17T03:25:02;9.53;;;1.37;;
20468;SDS011;10393;52.460;13.322;2023-05-17T03:26:44;2.97;;;1.23;;
20468;SDS011;10393;52.460;13.322;2023-05-17T03:28:26;1.37;;;0.60;;
20468;SDS011;10393;52.460;13.322;2023-05-17T03:30:10;2.90;;;0.97;;
20468;SDS011;10393;52.460;13.322;2023-05-17T03:31:52;2.97;;;1.00;;
20468;SDS011;10393;52.460;13.322;2023-05-17T03:33:34;5.43;;;1.00;;
20468;SDS011;10393;52.460;13.322;2023-05-17T03:35:16;4.23;;;0.90;;
20468;SDS011;10393;52.460;13.322;2023-05-17T03:37:02;3.10;;;1.10;;
20468;SDS011;10393;52.460;13.322;2023-05-17T03:38:43;3.73;;;0.80;;
20468;SDS011;10393;52.460;13.322;2023-05-17T03:40:24;1.63;;;0.83;;
20468;SDS011;10393;52.460;13.322;2023-05-17T03:42:06;6.47;;;1.40;;
20468;SDS011;10393;52.460;13.322;2023-05-17T03:43:48;10.20;;;0.83;;
20468;SDS011;10393;52.460;13.322;2023-05-17T03:45:30;3.77;;;0.87;;
20468;SDS011;10393;52.460;13.322;2023-05-17T03:47:11;5.30;;;0.97;;
20468;SDS011;10393;52.460;13.322;2023-05-17T03:48:52;11.83;;;1.40;;
20468;SDS011;10393;52.460;13.322;2023-05-17T03:50:35;3.07;;;1.07;;
20468;SDS011;10393;52.460;13.322;2023-05-17T03:52:16;2.60;;;0.90;;
20468;SDS011;10393;52.460;13.322;2023-05-17T03:53:58;5.10;;;0.90;;
20468;SDS011;10393;52.460;13.322;2023-05-17T03:55:41;5.37;;;1.63;;
20468;SDS011;10393;52.460;13.322;2023-05-17T03:57:22;3.87;;;1.10;;
20468;SDS011;10393;52.460;13.322;2023-05-17T03:59:03;17.07;;;1.30;;
20468;SDS011;10393;52.460;13.322;2023-05-17T04:00:45;2.17;;;0.93;;
20468;SDS011;10393;52.460;13.322;2023-05-17T04:02:30;8.53;;;1.10;;
20468;SDS011;10393;52.460;13.322;2023-05-17T04:04:11;7.68;;;1.25;;
20468;SDS011;10393;52.460;13.322;2023-05-17T04:05:53;3.90;;;0.90;;
20468;SDS011;10393;52.460;13.322;2023-05-17T04:07:34;1.13;;;0.60;;
20468;SDS011;10393;52.460;13.322;2023-05-17T04:09:17;3.63;;;1.40;;
20468;SDS011;10393;52.460;13.322;2023-05-17T04:10:59;4.50;;;1.23;;
20468;SDS011;10393;52.460;13.322;2023-05-17T04:12:49;2.93;;;1.07;;
20468;SDS011;10393;52.460;13.322;2023-05-17T04:14:31;3.67;;;1.03;;
20468;SDS011;10393;52.460;13.322;2023-05-17T04:16:12;14.20;;;1.40;;
20468;SDS011;10393;52.460;13.322;2023-05-17T04:17:55;8.85;;;1.10;;
20468;SDS011;10393;52.460;13.322;2023-05-17T04:19:36;14.67;;;1.87;;
20468;SDS011;10393;52.460;13.322;2023-05-17T04:21:18;7.53;;;1.50;;
20468;SDS011;10393;52.460;13.322;2023-05-17T04:22:59;4.95;;;2.17;;
20468;SDS011;10393;52.460;13.322;2023-05-17T04:24:43;7.07;;;1.30;;
20468;SDS011;10393;52.460;13.322;2023-05-17T04:26:25;5.63;;;1.23;;
20468;SDS011;10393;52.460;13.322;2023-05-17T04:28:06;4.83;;;0.93;;
20468;SDS011;10393;52.460;13.322;2023-05-17T04:29:47;13.37;;;1.10;;
20468;SDS011;10393;52.460;13.322;2023-05-17T04:31:29;13.07;;;1.58;;
20468;SDS011;10393;52.460;13.322;2023-05-17T04:33:11;4.80;;;1.00;;
20468;SDS011;10393;52.460;13.322;2023-05-17T04:34:53;3.20;;;1.13;;
20468;SDS011;10393;52.460;13.322;2023-05-17T04:36:35;3.23;;;1.27;;
20468;SDS011;10393;52.460;13.322;2023-05-17T04:38:16;6.03;;;1.20;;
20468;SDS011;10393;52.460;13.322;2023-05-17T04:39:58;3.85;;;1.13;;
20468;SDS011;10393;52.460;13.322;2023-05-17T04:41:42;7.10;;;1.00;;
20468;SDS011;10393;52.460;13.322;2023-05-17T04:43:25;4.97;;;0.83;;
20468;SDS011;10393;52.460;13.322;2023-05-17T04:45:07;5.55;;;1.30;;
20468;SDS011;10393;52.460;13.322;2023-05-17T04:46:49;4.43;;;1.13;;
20468;SDS011;10393;52.460;13.322;2023-05-17T04:48:31;9.75;;;1.23;;
20468;SDS011;10393;52.460;13.322;2023-05-17T04:50:12;4.88;;;1.17;;
20468;SDS011;10393;52.460;13.322;2023-05-17T04:51:54;10.43;;;1.48;;
20468;SDS011;10393;52.460;13.322;2023-05-17T04:53:36;9.23;;;1.35;;
20468;SDS011;10393;52.460;13.322;2023-05-17T04:55:22;6.28;;;1.20;;
20468;SDS011;10393;52.460;13.322;2023-05-17T04:57:04;8.15;;;1.25;;
20468;SDS011;10393;52.460;13.322;2023-05-17T04:59:05;5.78;;;1.30;;
20468;SDS011;10393;52.460;13.322;2023-05-17T05:00:47;3.65;;;1.38;;
20468;SDS011;10393;52.460;13.322;2023-05-17T05:02:28;6.03;;;1.70;;
20468;SDS011;10393;52.460;13.322;2023-05-17T05:04:10;7.70;;;1.80;;
20468;SDS011;10393;52.460;13.322;2023-05-17T05:05:55;7.75;;;1.50;;
20468;SDS011;10393;52.460;13.322;2023-05-17T05:07:37;9.98;;;1.33;;
20468;SDS011;10393;52.460;13.322;2023-05-17T05:09:19;5.57;;;1.40;;
20468;SDS011;10393;52.460;13.322;2023-05-17T05:11:01;11.18;;;1.65;;
20468;SDS011;10393;52.460;13.322;2023-05-17T05:12:43;8.00;;;1.48;;
20468;SDS011;10393;52.460;13.322;2023-05-17T05:14:24;6.72;;;1.30;;
20468;SDS011;10393;52.460;13.322;2023-05-17T05:16:06;12.80;;;3.13;;
20468;SDS011;10393;52.460;13.322;2023-05-17T05:17:48;6.63;;;1.50;;
20468;SDS011;10393;52.460;13.322;2023-05-17T05:19:30;11.70;;;1.52;;
20468;SDS011;10393;52.460;13.322;2023-05-17T05:21:13;6.70;;;1.42;;
20468;SDS011;10393;52.460;13.322;2023-05-17T05:22:54;8.80;;;1.20;;
20468;SDS011;10393;52.460;13.322;2023-05-17T05:24:37;5.85;;;1.33;;
20468;SDS011;10393;52.460;13.322;2023-05-17T05:26:19;16.02;;;1.65;;
20468;SDS011;10393;52.460;13.322;2023-05-17T05:28:00;7.75;;;1.17;;
20468;SDS011;10393;52.460;13.322;2023-05-17T05:29:42;8.98;;;1.35;;
20468;SDS011;10393;52.460;13.322;2023-05-17T05:31:24;7.05;;;1.58;;
20468;SDS011;10393;52.460;13.322;2023-05-17T05:33:07;9.38;;;1.58;;
20468;SDS011;10393;52.460;13.322;2023-05-17T05:34:50;6.75;;;1.30;;
20468;SDS011;10393;52.460;13.322;2023-05-17T05:36:31;5.10;;;1.20;;
20468;SDS011;10393;52.460;13.322;2023-05-17T05:38:14;3.78;;;1.10;;
20468;SDS011;10393;52.460;13.322;2023-05-17T05:39:55;4.03;;;1.30;;
20468;SDS011;10393;52.460;13.322;2023-05-17T05:41:37;2.22;;;1.25;;
20468;SDS011;10393;52.460;13.322;2023-05-17T05:43:19;13.60;;;1.50;;
20468;SDS011;10393;52.460;13.322;2023-05-17T05:45:00;6.28;;;1.42;;
20468;SDS011;10393;52.460;13.322;2023-05-17T05:46:42;10.80;;;2.65;;
20468;SDS011;10393;52.460;13.322;2023-05-17T05:48:23;11.80;;;4.07;;
20468;SDS011;10393;52.460;13.322;2023-05-17T05:50:05;8.68;;;3.47;;
20468;SDS011;10393;52.460;13.322;2023-05-17T05:51:47;6.28;;;2.65;;
20468;SDS011;10393;52.460;13.322;2023-05-17T05:53:29;5.85;;;1.45;;
20468;SDS011;10393;52.460;13.322;2023-05-17T05:55:10;4.45;;;0.93;;
20468;SDS011;10393;52.460;13.322;2023-05-17T05:56:51;3.65;;;1.33;;
20468;SDS011;10393;52.460;13.322;2023-05-17T05:58:34;6.80;;;1.38;;
20468;SDS011;10393;52.460;13.322;2023-05-17T06:00:17;8.05;;;3.28;;
20468;SDS011;10393;52.460;13.322;2023-05-17T06:01:59;7.75;;;1.20;;
20468;SDS011;10393;52.460;13.322;2023-05-17T06:03:41;6.40;;;1.27;;
20468;SDS011;10393;52.460;13.322;2023-05-17T06:05:22;5.32;;;1.20;;
20468;SDS011;10393;52.460;13.322;2023-05-17T06:07:03;6.47;;;1.42;;
20468;SDS011;10393;52.460;13.322;2023-05-17T06:08:44;2.53;;;0.93;;
20468;SDS011;10393;52.460;13.322;2023-05-17T06:10:26;2.10;;;0.90;;
20468;SDS011;10393;52.460;13.322;2023-05-17T06:12:07;3.95;;;0.90;;
20468;SDS011;10393;52.460;13.322;2023-05-17T06:13:48;4.22;;;0.90;;
20468;SDS011;10393;52.460;13.322;2023-05-17T06:15:30;9.77;;;0.93;;
20468;SDS011;10393;52.460;13.322;2023-05-17T06:17:11;6.53;;;1.20;;
20468;SDS011;10393;52.460;13.322;2023-05-17T06:18:52;3.80;;;1.00;;
20468;SDS011;10393;52.460;13.322;2023-05-17T06:20:33;3.50;;;0.95;;
20468;SDS011;10393;52.460;13.322;2023-05-17T06:22:14;4.75;;;1.05;;
20468;SDS011;10393;52.460;13.322;2023-05-17T06:23:56;3.50;;;0.98;;
20468;SDS011;10393;52.460;13.322;2023-05-17T06:25:38;3.97;;;0.82;;
20468;SDS011;10393;52.460;13.322;2023-05-17T06:27:19;11.15;;;0.90;;
20468;SDS011;10393;52.460;13.322;2023-05-17T06:29:01;1.88;;;0.65;;
20468;SDS011;10393;52.460;13.322;2023-05-17T06:30:43;3.78;;;1.10;;
20468;SDS011;10393;52.460;13.322;2023-05-17T06:32:24;6.10;;;0.90;;
20468;SDS011;10393;52.460;13.322;2023-05-17T06:34:05;7.20;;;0.93;;
20468;SDS011;10393;52.460;13.322;2023-05-17T06:35:46;2.00;;;0.98;;
20468;SDS011;10393;52.460;13.322;2023-05-17T06:37:28;3.47;;;0.95;;
20468;SDS011;10393;52.460;13.322;2023-05-17T06:39:09;3.13;;;1.05;;
20468;SDS011;10393;52.460;13.322;2023-05-17T06:40:50;2.33;;;0.73;;
20468;SDS011;10393;52.460;13.322;2023-05-17T06:42:32;3.80;;;1.17;;
20468;SDS011;10393;52.460;13.322;2023-05-17T06:44:17;5.03;;;0.90;;
20468;SDS011;10393;52.460;13.322;2023-05-17T06:46:09;3.55;;;1.15;;
20468;SDS011;10393;52.460;13.322;2023-05-17T06:47:50;4.03;;;1.40;;
20468;SDS011;10393;52.460;13.322;2023-05-17T06:49:31;7.70;;;1.30;;
20468;SDS011;10393;52.460;13.322;2023-05-17T06:51:20;4.63;;;1.25;;
20468;SDS011;10393;52.460;13.322;2023-05-17T06:53:02;3.60;;;1.25;;
20468;SDS011;10393;52.460;13.322;2023-05-17T06:54:49;10.15;;;1.50;;
20468;SDS011;10393;52.460;13.322;2023-05-17T06:56:32;6.07;;;1.15;;
20468;SDS011;10393;52.460;13.322;2023-05-17T06:58:23;4.65;;;1.10;;
20468;SDS011;10393;52.460;13.322;2023-05-17T07:00:07;4.05;;;1.08;;
20468;SDS011;10393;52.460;13.322;2023-05-17T07:01:56;5.13;;;0.77;;
20468;SDS011;10393;52.460;13.322;2023-05-17T07:03:42;1.52;;;0.50;;
20468;SDS011;10393;52.460;13.322;2023-05-17T07:05:29;12.05;;;1.10;;
20468;SDS011;10393;52.460;13.322;2023-05-17T07:07:24;12.52;;;1.50;;
20468;SDS011;10393;52.460;13.322;2023-05-17T07:09:08;4.90;;;1.38;;
20468;SDS011;10393;52.460;13.322;2023-05-17T07:11:02;10.25;;;1.55;;
20468;SDS011;10393;52.460;13.322;2023-05-17T07:12:59;3.78;;;1.58;;
20468;SDS011;10393;52.460;13.322;2023-05-17T07:14:41;5.63;;;1.48;;
20468;SDS011;10393;52.460;13.322;2023-05-17T07:16:22;4.28;;;1.23;;
20468;SDS011;10393;52.460;13.322;2023-05-17T07:18:03;5.25;;;1.63;;
20468;SDS011;10393;52.460;13.322;2023-05-17T07:19:44;3.25;;;1.20;;
20468;SDS011;10393;52.460;13.322;2023-05-17T07:21:30;2.40;;;1.23;;
20468;SDS011;10393;52.460;13.322;2023-05-17T07:23:11;14.50;;;1.33;;
20468;SDS011;10393;52.460;13.322;2023-05-17T07:24:53;5.47;;;1.00;;
20468;SDS011;10393;52.460;13.322;2023-05-17T07:26:34;6.35;;;1.27;;
20468;SDS011;10393;52.460;13.322;2023-05-17T07:28:15;3.00;;;1.38;;
20468;SDS011;10393;52.460;13.322;2023-05-17T07:29:56;3.00;;;1.20;;
20468;SDS011;10393;52.460;13.322;2023-05-17T07:31:37;4.07;;;1.10;;
20468;SDS011;10393;52.460;13.322;2023-05-17T07:33:18;3.03;;;0.90;;
20468;SDS011;10393;52.460;13.322;2023-05-17T07:35:00;2.13;;;0.80;;
20468;SDS011;10393;52.460;13.322;2023-05-17T07:36:42;4.25;;;1.30;;
20468;SDS011;10393;52.460;13.322;2023-05-17T07:38:23;6.10;;;1.52;;
20468;SDS011;10393;52.460;13.322;2023-05-17T07:40:05;5.45;;;0.88;;
20468;SDS011;10393;52.460;13.322;2023-05-17T07:41:46;2.55;;;0.85;;
20468;SDS011;10393;52.460;13.322;2023-05-17T07:43:27;5.40;;;1.30;;
20468;SDS011;10393;52.460;13.322;2023-05-17T07:45:09;5.75;;;1.08;;
20468;SDS011;10393;52.460;13.322;2023-05-17T07:46:50;2.92;;;1.20;;
20468;SDS011;10393;52.460;13.322;2023-05-17T07:48:31;4.32;;;1.20;;
20468;SDS011;10393;52.460;13.322;2023-05-17T07:50:12;5.82;;;1.00;;
20468;SDS011;10393;52.460;13.322;2023-05-17T07:51:54;4.78;;;0.88;;
20468;SDS011;10393;52.460;13.322;2023-05-17T07:53:35;2.70;;;1.30;;
20468;SDS011;10393;52.460;13.322;2023-05-17T07:55:16;1.08;;;0.90;;
20468;SDS011;10393;52.460;13.322;2023-05-17T07:56:58;3.47;;;1.15;;
20468;SDS011;10393;52.460;13.322;2023-05-17T07:58:40;9.57;;;1.00;;
20468;SDS011;10393;52.460;13.322;2023-05-17T08:00:21;4.40;;;1.02;;
20468;SDS011;10393;52.460;13.322;2023-05-17T08:02:02;2.33;;;0.80;;
20468;SDS011;10393;52.460;13.322;2023-05-17T08:03:44;4.53;;;1.20;;
20468;SDS011;10393;52.460;13.322;2023-05-17T08:05:27;2.95;;;1.10;;
20468;SDS011;10393;52.460;13.322;2023-05-17T08:07:08;6.13;;;0.98;;
20468;SDS011;10393;52.460;13.322;2023-05-17T08:08:49;7.60;;;1.23;;
20468;SDS011;10393;52.460;13.322;2023-05-17T08:10:30;2.65;;;0.60;;
20468;SDS011;10393;52.460;13.322;2023-05-17T08:12:11;4.03;;;0.93;;
20468;SDS011;10393;52.460;13.322;2023-05-17T08:13:53;6.55;;;1.10;;
20468;SDS011;10393;52.460;13.322;2023-05-17T08:15:35;5.13;;;1.00;;
20468;SDS011;10393;52.460;13.322;2023-05-17T08:17:16;3.33;;;0.80;;
20468;SDS011;10393;52.460;13.322;2023-05-17T08:18:57;3.20;;;0.93;;
20468;SDS011;10393;52.460;13.322;2023-05-17T08:20:38;5.15;;;0.98;;
20468;SDS011;10393;52.460;13.322;2023-05-17T08:22:20;5.57;;;1.20;;
20468;SDS011;10393;52.460;13.322;2023-05-17T08:24:01;8.20;;;1.13;;
20468;SDS011;10393;52.460;13.322;2023-05-17T08:25:42;2.17;;;1.10;;
20468;SDS011;10393;52.460;13.322;2023-05-17T08:27:24;6.25;;;0.95;;
20468;SDS011;10393;52.460;13.322;2023-05-17T08:29:06;2.53;;;1.40;;
20468;SDS011;10393;52.460;13.322;2023-05-17T08:30:47;3.47;;;1.00;;
20468;SDS011;10393;52.460;13.322;2023-05-17T08:32:29;5.05;;;0.77;;
20468;SDS011;10393;52.460;13.322;2023-05-17T08:34:10;2.92;;;1.02;;
20468;SDS011;10393;52.460;13.322;2023-05-17T08:35:52;6.47;;;0.98;;
20468;SDS011;10393;52.460;13.322;2023-05-17T08:37:34;2.45;;;0.88;;
20468;SDS011;10393;52.460;13.322;2023-05-17T08:39:15;5.38;;;0.90;;
20468;SDS011;10393;52.460;13.322;2023-05-17T08:40:57;1.10;;;0.52;;
20468;SDS011;10393;52.460;13.322;2023-05-17T08:42:38;3.38;;;0.85;;
20468;SDS011;10393;52.460;13.322;2023-05-17T08:44:20;4.97;;;0.90;;
20468;SDS011;10393;52.460;13.322;2023-05-17T08:46:02;4.45;;;0.68;;
20468;SDS011;10393;52.460;13.322;2023-05-17T08:47:43;8.77;;;1.20;;
20468;SDS011;10393;52.460;13.322;2023-05-17T08:49:26;7.10;;;0.77;;
20468;SDS011;10393;52.460;13.322;2023-05-17T08:51:08;5.97;;;0.98;;
20468;SDS011;10393;52.460;13.322;2023-05-17T08:52:51;4.05;;;0.60;;
20468;SDS011;10393;52.460;13.322;2023-05-17T08:54:32;5.78;;;0.70;;
20468;SDS011;10393;52.460;13.322;2023-05-17T08:56:15;4.05;;;0.80;;
20468;SDS011;10393;52.460;13.322;2023-05-17T08:57:58;5.60;;;0.90;;
20468;SDS011;10393;52.460;13.322;2023-05-17T08:59:40;5.10;;;1.13;;
20468;SDS011;10393;52.460;13.322;2023-05-17T09:01:22;2.47;;;0.50;;
20468;SDS011;10393;52.460;13.322;2023-05-17T09:03:03;5.18;;;0.85;;
20468;SDS011;10393;52.460;13.322;2023-05-17T09:04:45;5.32;;;0.65;;
20468;SDS011;10393;52.460;13.322;2023-05-17T09:06:26;0.32;;;0.05;;
20468;SDS011;10393;52.460;13.322;2023-05-17T09:08:08;6.03;;;0.70;;
20468;SDS011;10393;52.460;13.322;2023-05-17T09:09:53;11.25;;;0.90;;
20468;SDS011;10393;52.460;13.322;2023-05-17T09:11:34;9.82;;;0.70;;
20468;SDS011;10393;52.460;13.322;2023-05-17T09:13:16;2.78;;;0.70;;
20468;SDS011;10393;52.460;13.322;2023-05-17T09:15:10;4.20;;;0.65;;
20468;SDS011;10393;52.460;13.322;2023-05-17T09:16:55;3.63;;;0.52;;
20468;SDS011;10393;52.460;13.322;2023-05-17T09:18:37;7.63;;;0.63;;
20468;SDS011;10393;52.460;13.322;2023-05-17T09:20:24;2.05;;;0.60;;
20468;SDS011;10393;52.460;13.322;2023-05-17T09:22:19;7.65;;;0.70;;
20468;SDS011;10393;52.460;13.322;2023-05-17T09:24:01;7.38;;;0.73;;
20468;SDS011;10393;52.460;13.322;2023-05-17T09:25:48;3.33;;;0.60;;
20468;SDS011;10393;52.460;13.322;2023-05-17T09:27:30;6.80;;;0.73;;
20468;SDS011;10393;52.460;13.322;2023-05-17T09:29:12;6.40;;;0.80;;
20468;SDS011;10393;52.460;13.322;2023-05-17T09:30:54;4.28;;;0.70;;
20468;SDS011;10393;52.460;13.322;2023-05-17T09:32:41;7.78;;;0.73;;
20468;SDS011;10393;52.460;13.322;2023-05-17T09:34:24;5.75;;;0.98;;
20468;SDS011;10393;52.460;13.322;2023-05-17T09:36:09;6.35;;;0.98;;
20468;SDS011;10393;52.460;13.322;2023-05-17T09:38:11;5.78;;;1.20;;
20468;SDS011;10393;52.460;13.322;2023-05-17T09:39:53;4.30;;;0.88;;
20468;SDS011;10393;52.460;13.322;2023-05-17T09:41:44;8.55;;;0.77;;
20468;SDS011;10393;52.460;13.322;2023-05-17T09:43:26;2.45;;;0.43;;
20468;SDS011;10393;52.460;13.322;2023-05-17T09:45:08;4.68;;;0.52;;
20468;SDS011;10393;52.460;13.322;2023-05-17T09:46:49;4.95;;;0.88;;
20468;SDS011;10393;52.460;13.322;2023-05-17T09:48:30;9.13;;;1.08;;
20468;SDS011;10393;52.460;13.322;2023-05-17T09:50:11;3.60;;;0.82;;
20468;SDS011;10393;52.460;13.322;2023-05-17T09:51:57;4.68;;;0.60;;
20468;SDS011;10393;52.460;13.322;2023-05-17T09:53:38;7.18;;;1.00;;
20468;SDS011;10393;52.460;13.322;2023-05-17T09:55:22;3.53;;;0.60;;
20468;SDS011;10393;52.460;13.322;2023-05-17T09:57:07;1.73;;;0.50;;
20468;SDS011;10393;52.460;13.322;2023-05-17T09:58:49;5.43;;;0.70;;
20468;SDS011;10393;52.460;13.322;2023-05-17T10:00:30;1.55;;;0.60;;
20468;SDS011;10393;52.460;13.322;2023-05-17T10:02:19;4.00;;;0.60;;
20468;SDS011;10393;52.460;13.322;2023-05-17T10:04:01;6.50;;;1.17;;
20468;SDS011;10393;52.460;13.322;2023-05-17T10:05:43;2.50;;;0.40;;
20468;SDS011;10393;52.460;13.322;2023-05-17T10:07:25;5.60;;;0.82;;
20468;SDS011;10393;52.460;13.322;2023-05-17T10:09:07;6.25;;;0.80;;
20468;SDS011;10393;52.460;13.322;2023-05-17T10:10:51;10.23;;;0.90;;
20468;SDS011;10393;52.460;13.322;2023-05-17T10:12:32;5.20;;;0.85;;
20468;SDS011;10393;52.460;13.322;2023-05-17T10:14:18;4.88;;;0.55;;
20468;SDS011;10393;52.460;13.322;2023-05-17T10:16:01;1.90;;;0.40;;
20468;SDS011;10393;52.460;13.322;2023-05-17T10:17:42;4.80;;;0.45;;
20468;SDS011;10393;52.460;13.322;2023-05-17T10:19:24;3.22;;;0.50;;